createdAt,value
2017-09-16T00:02:13.689Z,7.88
2017-09-16T00:04:41.128Z,7.66
2017-09-16T00:07:08.587Z,7.63
2017-09-16T00:09:36.027Z,7.73
2017-09-16T00:12:03.493Z,7.63
2017-09-16T00:14:30.956Z,7.68
2017-09-16T00:16:58.433Z,7.71
2017-09-16T00:19:25.940Z,7.64
2017-09-16T00:21:53.503Z,7.67
2017-09-16T00:24:21.065Z,7.61
2017-09-16T00:26:48.617Z,7.56
2017-09-16T00:29:16.064Z,7.54
2017-09-16T00:31:43.531Z,7.58
2017-09-16T00:34:10.977Z,7.59
2017-09-16T00:36:38.467Z,7.69
2017-09-16T00:39:06.089Z,7.39
2017-09-16T00:41:33.541Z,7.39
2017-09-16T00:44:01.021Z,7.28
2017-09-16T00:46:28.477Z,7.26
2017-09-16T00:48:55.957Z,7.25
2017-09-16T00:51:23.417Z,7.23
2017-09-16T00:53:50.883Z,7.19
2017-09-16T00:56:18.333Z,7.27
2017-09-16T00:58:45.944Z,7.31
2017-09-16T01:01:13.400Z,7.31
2017-09-16T01:03:40.897Z,7.30
2017-09-16T01:06:08.426Z,7.29
2017-09-16T01:08:35.876Z,7.13
2017-09-16T01:11:03.346Z,7.09
2017-09-16T01:13:30.856Z,7.15
2017-09-16T01:15:58.345Z,7.16
2017-09-16T01:18:25.792Z,7.19
2017-09-16T01:20:53.263Z,7.23
2017-09-16T01:23:20.705Z,7.25
2017-09-16T01:25:48.338Z,7.14
2017-09-16T01:28:15.809Z,7.09
2017-09-16T01:30:43.283Z,6.92
2017-09-16T01:33:10.740Z,6.94
2017-09-16T01:35:38.179Z,6.80
2017-09-16T01:38:05.650Z,6.92
2017-09-16T01:40:33.097Z,6.88
2017-09-16T01:43:00.578Z,6.89
2017-09-16T01:45:28.065Z,6.91
2017-09-16T01:47:55.601Z,6.95
2017-09-16T01:50:23.172Z,7.14
2017-09-16T01:52:51.101Z,7.18
2017-09-16T01:55:18.553Z,7.15
2017-09-16T01:57:46.034Z,7.32
2017-09-16T02:00:13.485Z,7.24
2017-09-16T02:02:40.960Z,7.17
2017-09-16T02:05:08.516Z,7.00
2017-09-16T02:07:35.985Z,7.23
2017-09-16T02:10:03.437Z,7.18
2017-09-16T02:12:30.985Z,7.22
2017-09-16T02:14:58.460Z,7.09
2017-09-16T02:17:25.908Z,7.03
2017-09-16T02:19:53.394Z,7.02
2017-09-16T02:22:20.921Z,7.00
2017-09-16T02:24:48.413Z,6.91
2017-09-16T02:27:15.859Z,6.93
2017-09-16T02:29:43.336Z,6.83
2017-09-16T02:32:10.792Z,6.79
2017-09-16T02:34:38.303Z,6.66
2017-09-16T02:37:05.763Z,6.69
2017-09-16T02:39:33.336Z,6.78
2017-09-16T02:42:00.794Z,6.86
2017-09-16T02:44:28.250Z,6.59
2017-09-16T02:46:55.795Z,6.76
2017-09-16T02:49:23.242Z,6.76
2017-09-16T02:51:50.713Z,6.68
2017-09-16T02:54:18.168Z,6.59
2017-09-16T02:56:45.712Z,6.54
2017-09-16T02:59:13.681Z,6.32
2017-09-16T03:01:41.204Z,6.31
2017-09-16T03:04:08.648Z,6.43
2017-09-16T03:06:36.141Z,6.49
2017-09-16T03:09:03.593Z,6.52
2017-09-16T03:11:31.128Z,6.51
2017-09-16T03:13:58.630Z,6.77
2017-09-16T03:16:26.083Z,6.33
2017-09-16T03:18:53.561Z,6.31
2017-09-16T03:21:21.028Z,6.35
2017-09-16T03:23:48.533Z,6.28
2017-09-16T03:26:15.971Z,6.17
2017-09-16T03:28:43.463Z,6.15
2017-09-16T03:31:10.914Z,6.17
2017-09-16T03:33:38.387Z,6.15
2017-09-16T03:36:05.940Z,6.21
2017-09-16T03:38:33.420Z,6.07
2017-09-16T03:41:00.889Z,5.96
2017-09-16T03:43:28.353Z,6.09
2017-09-16T03:45:56.063Z,5.95
2017-09-16T03:48:23.557Z,6.13
2017-09-16T03:50:51.020Z,6.22
2017-09-16T03:53:18.477Z,5.92
2017-09-16T03:55:46.002Z,5.96
2017-09-16T03:58:13.665Z,6.00
2017-09-16T04:00:41.137Z,6.01
2017-09-16T04:03:08.596Z,6.07
2017-09-16T04:05:36.089Z,5.99
2017-09-16T04:08:03.535Z,5.99
2017-09-16T04:10:31.014Z,5.91
2017-09-16T04:12:58.477Z,5.90
2017-09-16T04:15:25.971Z,5.95
2017-09-16T04:17:53.418Z,5.98
2017-09-16T04:20:20.893Z,5.71
2017-09-16T04:22:48.344Z,5.92
2017-09-16T04:25:15.797Z,6.16
2017-09-16T04:27:43.277Z,5.92
2017-09-16T04:30:10.736Z,5.85
2017-09-16T04:32:38.220Z,5.73
2017-09-16T04:35:05.677Z,5.74
2017-09-16T04:37:33.142Z,5.70
2017-09-16T04:40:00.586Z,5.65
2017-09-16T04:42:28.058Z,5.78
2017-09-16T04:44:55.666Z,5.66
2017-09-16T04:47:23.145Z,5.55
2017-09-16T04:49:50.593Z,5.59
2017-09-16T04:52:18.129Z,5.82
2017-09-16T04:54:45.571Z,5.89
2017-09-16T04:57:13.066Z,6.01
2017-09-16T04:59:40.511Z,6.07
2017-09-16T05:02:07.963Z,6.26
2017-09-16T05:04:35.432Z,6.17
2017-09-16T05:07:02.880Z,6.31
2017-09-16T05:09:30.361Z,6.41
2017-09-16T05:11:57.868Z,6.42
2017-09-16T05:14:25.332Z,6.45
2017-09-16T05:16:52.809Z,6.54
2017-09-16T05:19:20.280Z,6.47
2017-09-16T05:21:47.728Z,6.60
2017-09-16T05:24:15.227Z,6.54
2017-09-16T05:26:42.693Z,6.61
2017-09-16T05:29:10.166Z,6.69
2017-09-16T05:31:37.861Z,6.59
2017-09-16T05:34:05.353Z,6.59
2017-09-16T05:36:32.798Z,6.56
2017-09-16T05:39:00.262Z,6.56
2017-09-16T05:41:27.741Z,6.61
2017-09-16T05:43:55.187Z,6.47
2017-09-16T05:46:22.656Z,6.64
2017-09-16T05:48:50.155Z,6.64
2017-09-16T05:51:17.684Z,6.72
2017-09-16T05:53:45.127Z,6.67
2017-09-16T05:56:12.598Z,6.81
2017-09-16T05:58:40.054Z,7.01
2017-09-16T06:01:07.613Z,7.31
2017-09-16T06:03:35.090Z,7.19
2017-09-16T06:06:02.565Z,7.28
2017-09-16T06:08:30.022Z,7.46
2017-09-16T06:10:57.505Z,7.55
2017-09-16T06:13:24.982Z,7.22
2017-09-16T06:15:52.450Z,7.86
2017-09-16T06:18:19.943Z,7.52
2017-09-16T06:20:47.410Z,7.26
2017-09-16T06:23:14.900Z,7.55
2017-09-16T06:25:42.354Z,7.52
2017-09-16T06:28:09.823Z,7.56
2017-09-16T06:30:37.269Z,7.61
2017-09-16T06:33:04.766Z,7.54
2017-09-16T06:35:32.212Z,7.64
2017-09-16T06:37:59.674Z,7.72
2017-09-16T06:40:27.240Z,7.86
2017-09-16T06:42:54.784Z,8.28
2017-09-16T06:45:22.234Z,7.91
2017-09-16T06:47:49.695Z,8.39
2017-09-16T06:50:17.153Z,8.35
2017-09-16T06:52:44.637Z,8.27
2017-09-16T06:55:12.152Z,7.96
2017-09-16T06:57:39.609Z,8.07
2017-09-16T07:00:07.101Z,8.33
2017-09-16T07:02:34.560Z,8.11
2017-09-16T07:05:02.038Z,7.92
2017-09-16T07:07:29.488Z,8.33
2017-09-16T07:09:57.168Z,8.24
2017-09-16T07:12:24.694Z,8.30
2017-09-16T07:14:52.420Z,8.36
2017-09-16T07:17:19.872Z,8.46
2017-09-16T07:19:47.363Z,9.22
2017-09-16T07:22:15.656Z,8.98
2017-09-16T07:24:43.133Z,9.19
2017-09-16T07:27:10.596Z,9.62
2017-09-16T07:29:38.049Z,9.15
2017-09-16T07:32:05.551Z,9.03
2017-09-16T07:34:33.014Z,9.19
2017-09-16T07:37:00.501Z,9.37
2017-09-16T07:39:27.967Z,9.48
2017-09-16T07:41:55.679Z,9.65
2017-09-16T07:44:23.133Z,9.41
2017-09-16T07:46:50.609Z,10.15
2017-09-16T07:49:18.161Z,9.80
2017-09-16T07:51:45.641Z,9.77
2017-09-16T07:54:13.129Z,9.91
2017-09-16T07:56:40.604Z,9.74
2017-09-16T07:59:08.097Z,9.55
2017-09-16T08:01:35.588Z,9.49
2017-09-16T08:04:03.190Z,9.78
2017-09-16T08:06:30.649Z,9.87
2017-09-16T08:08:58.146Z,10.32
2017-09-16T08:11:25.599Z,10.32
2017-09-16T08:13:53.067Z,10.47
2017-09-16T08:16:20.524Z,10.52
2017-09-16T08:18:48.004Z,10.68
2017-09-16T08:21:15.461Z,10.64
2017-09-16T08:23:42.953Z,11.08
2017-09-16T08:26:10.418Z,11.28
2017-09-16T08:28:37.912Z,11.39
2017-09-16T08:31:05.355Z,11.72
2017-09-16T08:33:32.898Z,11.37
2017-09-16T08:36:00.394Z,11.65
2017-09-16T08:38:27.852Z,11.38
2017-09-16T08:40:55.322Z,11.59
2017-09-16T08:43:22.777Z,12.07
2017-09-16T08:45:50.250Z,12.22
2017-09-16T08:48:17.695Z,11.98
2017-09-16T08:50:45.175Z,11.92
2017-09-16T08:53:12.715Z,12.15
2017-09-16T08:55:40.212Z,11.98
2017-09-16T08:58:07.668Z,12.09
2017-09-16T09:00:35.168Z,12.39
2017-09-16T09:03:02.628Z,12.62
2017-09-16T09:05:30.091Z,13.24
2017-09-16T09:07:57.566Z,12.89
2017-09-16T09:10:25.050Z,13.59
2017-09-16T09:12:52.511Z,13.36
2017-09-16T09:15:20.724Z,13.64
2017-09-16T09:17:48.181Z,13.28
2017-09-16T09:20:15.662Z,13.30
2017-09-16T09:22:43.129Z,13.86
2017-09-16T09:25:10.608Z,13.60
2017-09-16T09:27:38.161Z,14.03
2017-09-16T09:30:05.664Z,14.09
2017-09-16T09:32:33.111Z,14.15
2017-09-16T09:35:00.641Z,14.32
2017-09-16T09:37:28.099Z,14.36
2017-09-16T09:39:55.543Z,14.27
2017-09-16T09:42:23.018Z,14.12
2017-09-16T09:44:50.492Z,14.37
2017-09-16T09:47:17.962Z,14.86
2017-09-16T09:49:45.429Z,14.84
2017-09-16T09:52:12.908Z,14.96
2017-09-16T09:54:40.351Z,15.20
2017-09-16T09:57:07.846Z,15.06
2017-09-16T09:59:35.310Z,15.11
2017-09-16T10:02:03.171Z,15.44
2017-09-16T10:04:30.617Z,15.64
2017-09-16T10:06:58.083Z,15.56
2017-09-16T10:09:25.527Z,15.76
2017-09-16T10:11:53.039Z,15.71
2017-09-16T10:14:20.509Z,15.60
2017-09-16T10:16:47.993Z,15.71
2017-09-16T10:19:15.483Z,15.90
2017-09-16T10:21:42.979Z,16.34
2017-09-16T10:24:10.441Z,16.48
2017-09-16T10:26:37.913Z,16.57
2017-09-16T10:29:05.369Z,16.57
2017-09-16T10:31:32.849Z,16.11
2017-09-16T10:34:00.300Z,15.87
2017-09-16T10:36:27.815Z,16.07
2017-09-16T10:38:55.276Z,15.61
2017-09-16T10:41:22.744Z,15.83
2017-09-16T10:43:50.196Z,15.51
2017-09-16T10:46:17.676Z,15.55
2017-09-16T10:48:45.554Z,15.82
2017-09-16T10:51:13.044Z,15.68
2017-09-16T10:53:40.529Z,15.90
2017-09-16T10:56:08.064Z,15.77
2017-09-16T10:58:35.541Z,15.62
2017-09-16T11:01:03.152Z,15.76
2017-09-16T11:03:30.628Z,16.18
2017-09-16T11:05:58.075Z,16.25
2017-09-16T11:08:25.554Z,16.15
2017-09-16T11:10:53.031Z,15.63
2017-09-16T11:13:20.537Z,15.75
2017-09-16T11:15:47.980Z,15.46
2017-09-16T11:18:15.452Z,15.66
2017-09-16T11:20:42.904Z,15.94
2017-09-16T11:23:10.376Z,15.88
2017-09-16T11:25:37.822Z,15.74
2017-09-16T11:28:05.302Z,16.03
2017-09-16T11:30:32.771Z,16.16
2017-09-16T11:33:00.235Z,16.27
2017-09-16T11:35:27.937Z,16.09
2017-09-16T11:37:55.499Z,16.10
2017-09-16T11:40:22.955Z,16.08
2017-09-16T11:42:50.429Z,16.29
2017-09-16T11:45:17.889Z,16.33
2017-09-16T11:47:45.537Z,16.56
2017-09-16T11:50:12.993Z,16.42
2017-09-16T11:52:40.541Z,16.56
2017-09-16T11:55:08.004Z,16.44
2017-09-16T11:57:35.472Z,16.18
2017-09-16T12:00:02.916Z,16.15
2017-09-16T12:02:30.384Z,16.24
2017-09-16T12:04:57.933Z,16.27
2017-09-16T12:07:25.405Z,16.41
2017-09-16T12:09:52.886Z,16.47
2017-09-16T12:12:20.352Z,16.50
2017-09-16T12:14:47.841Z,16.55
2017-09-16T12:17:15.297Z,16.38
2017-09-16T12:19:42.885Z,16.42
2017-09-16T12:22:10.356Z,16.50
2017-09-16T12:24:37.831Z,16.51
2017-09-16T12:27:05.272Z,16.13
2017-09-16T12:29:32.750Z,16.33
2017-09-16T12:32:00.207Z,16.52
2017-09-16T12:34:27.992Z,16.44
2017-09-16T12:36:55.448Z,16.32
2017-09-16T12:39:22.943Z,16.23
2017-09-16T12:41:50.391Z,16.10
2017-09-16T12:44:17.860Z,16.13
2017-09-16T12:46:45.303Z,15.96
2017-09-16T12:49:12.781Z,15.99
2017-09-16T12:51:40.228Z,15.94
2017-09-16T12:54:07.703Z,15.69
2017-09-16T12:56:35.173Z,15.53
2017-09-16T12:59:02.657Z,15.46
2017-09-16T13:01:30.103Z,15.10
2017-09-16T13:03:57.558Z,15.30
2017-09-16T13:06:25.058Z,15.40
2017-09-16T13:08:52.503Z,15.42
2017-09-16T13:11:19.981Z,15.43
2017-09-16T13:13:47.526Z,15.45
2017-09-16T13:16:14.992Z,15.50
2017-09-16T13:18:42.456Z,15.42
2017-09-16T13:21:10.044Z,15.48
2017-09-16T13:23:37.497Z,15.70
2017-09-16T13:26:04.965Z,16.02
2017-09-16T13:28:32.412Z,15.85
2017-09-16T13:30:59.929Z,16.03
2017-09-16T13:33:27.488Z,16.10
2017-09-16T13:35:54.955Z,16.18
2017-09-16T13:38:22.414Z,16.14
2017-09-16T13:40:49.888Z,16.49
2017-09-16T13:43:17.366Z,16.05
2017-09-16T13:45:44.883Z,15.80
2017-09-16T13:48:12.433Z,16.07
2017-09-16T13:50:39.906Z,16.15
2017-09-16T13:53:07.363Z,15.83
2017-09-16T13:55:34.803Z,15.94
2017-09-16T13:58:02.376Z,16.02
2017-09-16T14:00:29.830Z,16.13
2017-09-16T14:02:57.315Z,16.37
2017-09-16T14:05:24.763Z,16.48
2017-09-16T14:07:52.854Z,16.66
2017-09-16T14:10:20.321Z,17.06
2017-09-16T14:12:47.800Z,17.19
2017-09-16T14:15:15.273Z,17.41
2017-09-16T14:17:42.783Z,17.25
2017-09-16T14:20:10.271Z,16.98
2017-09-16T14:22:37.750Z,16.57
2017-09-16T14:25:05.207Z,16.33
2017-09-16T14:27:32.677Z,16.52
2017-09-16T14:30:00.135Z,16.76
2017-09-16T14:32:27.605Z,16.49
2017-09-16T14:34:55.056Z,16.53
2017-09-16T14:37:22.530Z,16.54
2017-09-16T14:39:50.010Z,16.64
2017-09-16T14:42:17.462Z,16.58
2017-09-16T14:44:44.945Z,16.67
2017-09-16T14:47:12.416Z,16.85
2017-09-16T14:49:39.890Z,16.99
2017-09-16T14:52:07.344Z,17.17
2017-09-16T14:54:35.163Z,16.80
2017-09-16T14:57:02.770Z,16.85
2017-09-16T14:59:30.239Z,16.58
2017-09-16T15:01:57.713Z,16.88
2017-09-16T15:04:25.205Z,16.81
2017-09-16T15:06:53.051Z,16.87
2017-09-16T15:09:20.544Z,16.87
2017-09-16T15:11:48.233Z,16.90
2017-09-16T15:14:15.718Z,16.64
2017-09-16T15:16:43.408Z,16.42
2017-09-16T15:19:10.904Z,16.18
2017-09-16T15:21:38.378Z,16.19
2017-09-16T15:24:05.912Z,16.08
2017-09-16T15:26:33.391Z,16.02
2017-09-16T15:29:00.920Z,15.96
2017-09-16T15:31:28.408Z,16.06
2017-09-16T15:33:55.920Z,15.98
2017-09-16T15:36:23.402Z,15.56
2017-09-16T15:38:50.873Z,15.64
2017-09-16T15:41:18.919Z,15.43
2017-09-16T15:43:46.471Z,15.27
2017-09-16T15:46:14.044Z,15.29
2017-09-16T15:48:41.487Z,15.11
2017-09-16T15:51:09.044Z,15.17
2017-09-16T15:53:36.504Z,15.03
2017-09-16T15:56:03.990Z,14.85
2017-09-16T15:58:31.435Z,14.81
2017-09-16T16:00:58.927Z,14.68
2017-09-16T16:03:26.407Z,14.73
2017-09-16T16:05:53.855Z,14.61
2017-09-16T16:08:21.322Z,14.67
2017-09-16T16:10:48.805Z,14.68
2017-09-16T16:13:16.297Z,14.65
2017-09-16T16:15:43.821Z,14.63
2017-09-16T16:18:11.305Z,14.74
2017-09-16T16:20:38.776Z,14.93
2017-09-16T16:23:06.257Z,14.87
2017-09-16T16:25:33.745Z,14.89
2017-09-16T16:28:01.530Z,14.64
2017-09-16T16:30:28.994Z,14.51
2017-09-16T16:32:56.450Z,14.39
2017-09-16T16:35:23.920Z,14.30
2017-09-16T16:37:51.367Z,14.26
2017-09-16T16:40:19.021Z,14.26
2017-09-16T16:42:46.481Z,13.95
2017-09-16T16:45:13.955Z,13.84
2017-09-16T16:47:41.410Z,13.66
2017-09-16T16:50:08.892Z,13.47
2017-09-16T16:52:36.349Z,13.59
2017-09-16T16:55:03.936Z,13.56
2017-09-16T16:57:31.410Z,13.40
2017-09-16T16:59:58.880Z,13.45
2017-09-16T17:02:26.336Z,13.53
2017-09-16T17:04:53.865Z,13.67
2017-09-16T17:07:21.433Z,13.62
2017-09-16T17:09:48.894Z,13.88
2017-09-16T17:12:16.373Z,14.00
2017-09-16T17:14:43.952Z,13.94
2017-09-16T17:17:11.455Z,13.88
2017-09-16T17:19:38.907Z,13.62
2017-09-16T17:22:06.367Z,13.70
2017-09-16T17:24:33.820Z,13.68
2017-09-16T17:27:01.578Z,13.39
2017-09-16T17:29:29.027Z,13.46
2017-09-16T17:31:56.505Z,13.27
2017-09-16T17:34:23.980Z,13.10
2017-09-16T17:36:51.522Z,13.14
2017-09-16T17:39:18.972Z,13.04
2017-09-16T17:41:46.542Z,13.09
2017-09-16T17:44:14.025Z,13.03
2017-09-16T17:46:41.481Z,12.77
2017-09-16T17:49:09.000Z,12.71
2017-09-16T17:51:36.459Z,12.54
2017-09-16T17:54:04.020Z,12.43
2017-09-16T17:56:31.474Z,12.34
2017-09-16T17:58:58.936Z,12.37
2017-09-16T18:01:26.490Z,12.31
2017-09-16T18:03:53.943Z,12.20
2017-09-16T18:06:21.421Z,12.20
2017-09-16T18:08:48.875Z,12.10
2017-09-16T18:11:16.353Z,12.11
2017-09-16T18:13:43.993Z,12.13
2017-09-16T18:16:11.469Z,11.94
2017-09-16T18:18:38.925Z,12.00
2017-09-16T18:21:06.408Z,12.17
2017-09-16T18:23:33.869Z,12.28
2017-09-16T18:26:01.381Z,12.36
2017-09-16T18:28:28.835Z,12.19
2017-09-16T18:30:56.304Z,12.15
2017-09-16T18:33:23.748Z,12.07
2017-09-16T18:35:51.219Z,11.92
2017-09-16T18:38:18.762Z,11.82
2017-09-16T18:40:46.242Z,11.82
2017-09-16T18:43:13.716Z,11.70
2017-09-16T18:45:41.173Z,11.34
2017-09-16T18:48:08.653Z,11.46
2017-09-16T18:50:36.118Z,11.54
2017-09-16T18:53:03.601Z,11.51
2017-09-16T18:55:31.058Z,11.69
2017-09-16T18:57:58.523Z,11.70
2017-09-16T19:00:26.178Z,11.67
2017-09-16T19:02:53.721Z,11.71
2017-09-16T19:05:21.285Z,11.59
2017-09-16T19:07:48.769Z,11.41
2017-09-16T19:10:16.219Z,11.40
2017-09-16T19:12:43.692Z,11.32
2017-09-16T19:15:11.212Z,11.20
2017-09-16T19:17:38.667Z,11.03
2017-09-16T19:20:06.141Z,11.02
2017-09-16T19:22:33.597Z,11.26
2017-09-16T19:25:01.078Z,11.31
2017-09-16T19:27:28.553Z,11.40
2017-09-16T19:29:56.042Z,11.43
2017-09-16T19:32:23.538Z,11.31
2017-09-16T19:34:51.078Z,11.37
2017-09-16T19:37:18.537Z,11.38
2017-09-16T19:39:46.027Z,11.60
2017-09-16T19:42:13.764Z,11.37
2017-09-16T19:44:41.305Z,11.46
2017-09-16T19:47:09.118Z,11.39
2017-09-16T19:49:36.632Z,11.31
2017-09-16T19:52:04.209Z,11.39
2017-09-16T19:54:32.033Z,11.22
2017-09-16T19:56:59.541Z,11.35
2017-09-16T19:59:27.082Z,11.42
2017-09-16T20:01:54.686Z,11.50
2017-09-16T20:04:22.241Z,11.24
2017-09-16T20:06:49.747Z,11.59
2017-09-16T20:09:17.212Z,11.63
2017-09-16T20:11:44.818Z,11.49
2017-09-16T20:14:12.329Z,11.65
2017-09-16T20:16:39.809Z,11.86
2017-09-16T20:19:07.314Z,11.84
2017-09-16T20:21:34.827Z,11.85
2017-09-16T20:24:02.274Z,11.94
2017-09-16T20:26:29.781Z,11.80
2017-09-16T20:28:57.267Z,11.62
2017-09-16T20:31:25.044Z,11.48
2017-09-16T20:33:52.701Z,11.56
2017-09-16T20:36:20.504Z,11.58
2017-09-16T20:38:48.611Z,11.75
2017-09-16T20:41:16.065Z,11.70
2017-09-16T20:43:43.845Z,11.64
2017-09-16T20:46:11.385Z,11.78
2017-09-16T20:48:38.966Z,11.85
2017-09-16T20:51:06.424Z,11.82
2017-09-16T20:53:33.926Z,11.86
2017-09-16T20:56:01.395Z,11.84
2017-09-16T20:58:28.844Z,11.77
2017-09-16T21:00:56.320Z,11.65
2017-09-16T21:03:23.797Z,11.68
2017-09-16T21:05:51.272Z,11.84
2017-09-16T21:08:18.741Z,11.86
2017-09-16T21:10:46.272Z,11.78
2017-09-16T21:13:13.725Z,11.79
2017-09-16T21:15:41.210Z,11.81
2017-09-16T21:18:08.672Z,11.85
2017-09-16T21:20:36.156Z,11.84
2017-09-16T21:23:03.661Z,11.93
2017-09-16T21:25:31.153Z,11.86
2017-09-16T21:27:58.600Z,11.91
2017-09-16T21:30:26.080Z,11.94
2017-09-16T21:32:53.565Z,11.90
2017-09-16T21:35:21.016Z,11.89
2017-09-16T21:37:48.626Z,11.86
2017-09-16T21:40:16.089Z,11.86
2017-09-16T21:42:43.564Z,12.08
2017-09-16T21:45:11.036Z,12.15
2017-09-16T21:47:38.534Z,12.39
2017-09-16T21:50:05.992Z,12.17
2017-09-16T21:52:33.460Z,12.07
2017-09-16T21:55:01.006Z,11.81
2017-09-16T21:57:28.476Z,11.69
2017-09-16T21:59:55.918Z,11.69
2017-09-16T22:02:23.399Z,11.47
2017-09-16T22:04:50.856Z,11.44
2017-09-16T22:07:18.345Z,11.38
2017-09-16T22:09:45.860Z,11.46
2017-09-16T22:12:13.326Z,11.36
2017-09-16T22:14:40.805Z,11.32
2017-09-16T22:17:08.257Z,11.13
2017-09-16T22:19:35.791Z,11.06
2017-09-16T22:22:03.235Z,10.74
2017-09-16T22:24:30.708Z,10.68
2017-09-16T22:26:58.249Z,10.50
2017-09-16T22:29:25.716Z,10.36
2017-09-16T22:31:53.189Z,10.18
2017-09-16T22:34:20.660Z,10.22
2017-09-16T22:36:48.104Z,10.06
2017-09-16T22:39:15.585Z,9.94
2017-09-16T22:41:43.036Z,9.83
2017-09-16T22:44:10.488Z,9.76
2017-09-16T22:46:37.951Z,9.73
2017-09-16T22:49:05.450Z,9.72
2017-09-16T22:51:32.941Z,9.76
2017-09-16T22:54:00.477Z,9.84
2017-09-16T22:56:27.947Z,9.74
2017-09-16T22:58:55.396Z,9.75
2017-09-16T23:01:22.898Z,9.64
2017-09-16T23:03:50.357Z,9.67
2017-09-16T23:06:18.032Z,9.59
2017-09-16T23:08:45.562Z,9.34
2017-09-16T23:11:13.036Z,8.98
2017-09-16T23:13:40.481Z,9.15
2017-09-16T23:16:07.947Z,9.10
2017-09-16T23:18:35.421Z,9.08
2017-09-16T23:21:02.871Z,9.13
2017-09-16T23:23:30.365Z,9.18
2017-09-16T23:25:57.810Z,9.22
2017-09-16T23:28:25.289Z,9.25
2017-09-16T23:30:52.760Z,9.20
2017-09-16T23:33:20.231Z,9.07
2017-09-16T23:35:47.672Z,8.91
2017-09-16T23:38:15.181Z,8.94
2017-09-16T23:40:42.632Z,8.79
2017-09-16T23:43:10.112Z,8.63
2017-09-16T23:45:37.564Z,8.75
2017-09-16T23:48:05.048Z,8.59
2017-09-16T23:50:32.526Z,8.44
2017-09-16T23:53:00.205Z,8.42
2017-09-16T23:55:27.681Z,8.37
2017-09-16T23:57:55.129Z,8.47
